createdAt,value
2022-10-08T00:01:52.779Z,29.70
2022-10-08T00:06:54.867Z,29.50
2022-10-08T00:11:57.745Z,29.60
2022-10-08T00:16:59.689Z,29.80
2022-10-08T00:22:01.783Z,29.60
2022-10-08T00:27:03.843Z,29.70
2022-10-08T00:32:06.963Z,30.00
2022-10-08T00:37:09.098Z,29.90
2022-10-08T00:42:14.259Z,30.00
2022-10-08T00:52:51.534Z,30.00
2022-10-08T00:57:55.515Z,30.00
2022-10-08T01:02:57.556Z,30.00
2022-10-08T01:08:03.744Z,29.90
2022-10-08T01:13:50.193Z,30.00
2022-10-08T01:19:02.135Z,29.90
2022-10-08T01:24:21.411Z,30.00
2022-10-08T01:29:42.311Z,30.00
2022-10-08T01:34:59.267Z,29.90
2022-10-08T01:40:05.609Z,30.00
2022-10-08T01:45:13.970Z,30.60
2022-10-08T01:50:31.807Z,30.00
2022-10-08T01:55:41.452Z,30.00
2022-10-08T02:00:44.991Z,30.00
2022-10-08T02:05:51.769Z,29.90
2022-10-08T02:10:53.859Z,30.00
2022-10-08T02:16:11.139Z,30.00
2022-10-08T02:21:21.687Z,29.90
2022-10-08T02:26:40.252Z,29.90
2022-10-08T02:31:56.648Z,29.90
2022-10-08T02:37:08.339Z,30.30
2022-10-08T02:42:15.965Z,29.60
2022-10-08T02:47:22.251Z,29.60
2022-10-08T02:52:28.009Z,29.50
2022-10-08T03:03:16.517Z,29.50
2022-10-08T03:08:20.084Z,29.50
2022-10-08T03:13:23.393Z,29.70
2022-10-08T03:18:26.587Z,30.20
2022-10-08T03:23:28.651Z,29.60
2022-10-08T03:28:30.890Z,29.50
2022-10-08T03:33:33.620Z,29.40
2022-10-08T03:38:35.653Z,29.70
2022-10-08T03:43:37.806Z,29.60
2022-10-08T03:48:41.160Z,29.60
2022-10-08T03:53:43.863Z,29.50
2022-10-08T03:58:47.239Z,29.40
2022-10-08T04:03:49.640Z,29.30
2022-10-08T04:08:51.791Z,29.30
2022-10-08T04:13:53.927Z,29.40
2022-10-08T04:18:55.968Z,29.20
2022-10-08T04:23:58.059Z,29.30
2022-10-08T04:29:00.124Z,28.90
2022-10-08T04:34:02.219Z,29.30
2022-10-08T04:39:04.378Z,29.30
2022-10-08T04:44:06.437Z,29.30
2022-10-08T04:49:09.754Z,29.40
2022-10-08T04:54:11.858Z,29.50
2022-10-08T04:59:13.942Z,29.40
2022-10-08T05:04:16.028Z,29.30
2022-10-08T05:09:18.163Z,29.10
2022-10-08T05:14:20.209Z,29.10
2022-10-08T05:19:22.307Z,29.20
2022-10-08T05:24:24.443Z,29.10
2022-10-08T05:29:28.320Z,29.30
2022-10-08T05:34:30.429Z,29.20
2022-10-08T05:39:32.599Z,29.20
2022-10-08T05:44:37.576Z,29.20
2022-10-08T05:49:40.069Z,29.30
2022-10-08T05:54:42.180Z,29.40
2022-10-08T05:59:44.233Z,29.40
2022-10-08T06:04:49.369Z,29.40
2022-10-08T06:09:52.297Z,29.40
2022-10-08T06:14:54.252Z,29.50
2022-10-08T06:19:56.342Z,29.70
2022-10-08T06:30:00.864Z,29.90
2022-10-08T06:35:02.952Z,30.00
2022-10-08T06:40:05.270Z,30.10
2022-10-08T06:45:07.859Z,30.30
2022-10-08T06:50:10.109Z,30.00
2022-10-08T06:55:12.341Z,30.20
2022-10-08T07:00:14.613Z,30.30
2022-10-08T07:05:17.019Z,30.60
2022-10-08T07:10:19.140Z,30.70
2022-10-08T07:15:21.206Z,30.80
2022-10-08T07:20:23.363Z,31.30
2022-10-08T07:25:25.483Z,31.70
2022-10-08T07:30:27.647Z,31.50
2022-10-08T07:35:30.069Z,31.80
2022-10-08T07:40:34.685Z,31.60
2022-10-08T07:45:43.010Z,31.70
2022-10-08T07:50:45.545Z,31.90
2022-10-08T07:55:47.535Z,31.00
2022-10-08T08:00:50.715Z,31.10
2022-10-08T08:05:54.062Z,30.80
2022-10-08T08:10:57.938Z,30.00
2022-10-08T08:16:18.103Z,29.00
2022-10-08T08:21:26.678Z,28.60
2022-10-08T08:26:35.696Z,26.90
2022-10-08T08:31:41.330Z,27.40
2022-10-08T08:36:46.471Z,27.20
2022-10-08T08:42:21.198Z,25.80
2022-10-08T08:47:31.133Z,26.30
2022-10-08T08:52:38.208Z,26.00
2022-10-08T08:57:49.210Z,25.60
2022-10-08T09:02:59.110Z,25.00
2022-10-08T09:08:26.249Z,24.50
2022-10-08T09:13:39.728Z,23.90
2022-10-08T09:18:48.108Z,23.20
2022-10-08T09:23:50.177Z,22.70
2022-10-08T09:28:56.708Z,22.40
2022-10-08T09:34:18.434Z,22.20
2022-10-08T09:39:26.398Z,21.60
2022-10-08T09:44:40.442Z,21.10
2022-10-08T09:49:43.638Z,20.60
2022-10-08T09:54:48.889Z,20.40
2022-10-08T10:00:00.324Z,20.00
2022-10-08T10:05:05.504Z,20.50
2022-10-08T10:10:28.789Z,20.40
2022-10-08T10:16:02.674Z,20.20
2022-10-08T10:21:15.190Z,20.60
2022-10-08T10:26:24.772Z,21.00
2022-10-08T10:31:39.044Z,18.90
2022-10-08T10:36:50.412Z,19.50
2022-10-08T10:42:00.778Z,19.90
2022-10-08T10:47:03.888Z,19.00
2022-10-08T10:52:34.474Z,19.10
2022-10-08T10:58:25.344Z,19.10
2022-10-08T11:03:46.475Z,18.50
2022-10-08T11:09:17.219Z,17.60
2022-10-08T11:14:44.599Z,17.90
2022-10-08T11:19:57.675Z,19.00
2022-10-08T11:25:11.923Z,18.00
2022-10-08T11:30:28.498Z,18.30
2022-10-08T11:36:09.585Z,17.90
2022-10-08T11:41:48.937Z,17.90
2022-10-08T11:46:51.062Z,18.10
2022-10-08T11:51:54.102Z,17.90
2022-10-08T11:57:43.689Z,17.90
2022-10-08T12:02:55.481Z,17.70
2022-10-08T12:07:59.985Z,18.40
2022-10-08T12:13:17.596Z,18.70
2022-10-08T12:18:26.352Z,19.20
2022-10-08T12:23:34.290Z,19.70
2022-10-08T12:28:42.475Z,20.20
2022-10-08T12:34:02.608Z,19.80
2022-10-08T12:39:24.654Z,19.40
2022-10-08T12:44:50.566Z,19.80
2022-10-08T12:50:03.047Z,20.20
2022-10-08T12:55:06.151Z,19.90
2022-10-08T13:00:36.277Z,20.00
2022-10-08T13:05:40.846Z,19.70
2022-10-08T13:10:43.273Z,19.40
2022-10-08T13:15:45.408Z,19.30
2022-10-08T13:21:02.894Z,19.00
2022-10-08T13:26:39.689Z,18.70
2022-10-08T13:31:41.757Z,18.80
2022-10-08T13:36:50.223Z,19.70
2022-10-08T13:41:56.631Z,17.40
2022-10-08T13:47:03.428Z,16.40
2022-10-08T13:52:06.410Z,15.00
2022-10-08T13:57:08.428Z,14.60
2022-10-08T14:02:13.748Z,14.70
2022-10-08T14:07:30.151Z,14.00
2022-10-08T14:12:33.890Z,13.50
2022-10-08T14:17:36.012Z,13.80
2022-10-08T14:22:40.984Z,14.10
2022-10-08T14:27:43.093Z,13.90
2022-10-08T14:32:45.767Z,14.90
2022-10-08T14:37:48.109Z,15.60
2022-10-08T14:42:50.880Z,15.00
2022-10-08T14:47:53.499Z,13.40
2022-10-08T14:52:55.516Z,11.70
2022-10-08T14:57:57.440Z,10.80
2022-10-08T15:03:00.980Z,10.00
2022-10-08T15:08:03.021Z,8.20
2022-10-08T15:13:05.145Z,7.80
2022-10-08T15:18:07.701Z,7.50
2022-10-08T15:23:10.524Z,7.50
2022-10-08T15:28:12.654Z,8.80
2022-10-08T15:33:14.727Z,9.20
2022-10-08T15:38:17.049Z,10.20
2022-10-08T15:43:19.091Z,10.90
2022-10-08T15:48:21.146Z,11.00
2022-10-08T15:53:23.226Z,12.00
2022-10-08T15:58:46.099Z,12.80
2022-10-08T16:03:49.688Z,12.90
2022-10-08T16:08:52.314Z,14.20
2022-10-08T16:14:10.423Z,14.60
2022-10-08T16:19:16.222Z,15.00
2022-10-08T16:24:18.413Z,15.30
2022-10-08T16:29:21.265Z,15.70
2022-10-08T16:34:24.661Z,16.00
2022-10-08T16:39:26.857Z,16.80
2022-10-08T16:44:28.990Z,16.90
2022-10-08T16:49:31.336Z,17.10
2022-10-08T16:54:33.460Z,17.40
2022-10-08T16:59:35.561Z,17.70
2022-10-08T17:04:38.936Z,17.90
2022-10-08T17:09:41.058Z,18.50
2022-10-08T17:14:43.186Z,18.80
2022-10-08T17:19:45.506Z,19.30
2022-10-08T17:24:47.538Z,19.20
2022-10-08T17:29:49.613Z,19.10
2022-10-08T17:34:51.633Z,19.60
2022-10-08T17:39:53.709Z,19.80
2022-10-08T17:44:55.707Z,19.90
2022-10-08T17:49:57.763Z,20.10
2022-10-08T17:54:59.857Z,20.50
2022-10-08T18:00:01.968Z,20.60
2022-10-08T18:05:10.675Z,20.90
2022-10-08T18:10:12.694Z,21.10
2022-10-08T18:15:14.727Z,21.20
2022-10-08T18:20:16.795Z,21.20
2022-10-08T18:25:18.802Z,21.40
2022-10-08T18:30:20.890Z,21.60
2022-10-08T18:35:24.736Z,21.80
2022-10-08T18:40:30.295Z,22.20
2022-10-08T18:45:35.989Z,22.20
2022-10-08T18:50:38.046Z,22.50
2022-10-08T18:55:47.314Z,22.40
2022-10-08T19:00:49.392Z,21.80
2022-10-08T19:05:52.454Z,22.40
2022-10-08T19:10:54.537Z,22.60
2022-10-08T19:15:56.617Z,22.80
2022-10-08T19:21:06.856Z,22.70
2022-10-08T19:26:10.006Z,23.50
2022-10-08T19:31:18.036Z,24.20
2022-10-08T19:36:21.410Z,24.20
2022-10-08T19:41:24.271Z,23.90
2022-10-08T19:46:26.749Z,23.70
2022-10-08T19:51:30.230Z,23.80
2022-10-08T19:56:32.424Z,24.20
2022-10-08T20:01:36.594Z,24.20
2022-10-08T20:06:41.154Z,24.50
2022-10-08T20:11:45.198Z,25.10
2022-10-08T20:16:47.257Z,24.60
2022-10-08T20:21:51.056Z,24.10
2022-10-08T20:26:53.108Z,24.00
2022-10-08T20:31:55.449Z,24.70
2022-10-08T20:37:01.305Z,24.80
2022-10-08T20:42:03.445Z,25.00
2022-10-08T20:47:05.454Z,25.40
2022-10-08T20:52:07.590Z,25.20
2022-10-08T20:57:09.676Z,25.90
2022-10-08T21:02:12.190Z,25.10
2022-10-08T21:07:14.399Z,25.60
2022-10-08T21:12:16.428Z,25.70
2022-10-08T21:17:18.483Z,25.50
2022-10-08T21:22:20.544Z,24.70
2022-10-08T21:27:22.711Z,25.20
2022-10-08T21:32:24.813Z,25.00
2022-10-08T21:37:26.834Z,25.30
2022-10-08T21:42:29.136Z,25.10
2022-10-08T21:47:31.260Z,25.80
2022-10-08T21:52:33.320Z,25.50
2022-10-08T21:57:35.428Z,25.50
2022-10-08T22:02:37.935Z,25.30
2022-10-08T22:07:39.965Z,25.50
2022-10-08T22:12:42.037Z,25.70
2022-10-08T22:17:44.158Z,25.50
2022-10-08T22:22:46.570Z,25.70
2022-10-08T22:27:49.000Z,25.40
2022-10-08T22:32:51.221Z,25.70
2022-10-08T22:37:53.449Z,25.80
2022-10-08T22:42:56.461Z,25.90
2022-10-08T22:47:58.772Z,26.10
2022-10-08T22:53:00.828Z,26.10
2022-10-08T22:58:02.880Z,26.50
2022-10-08T23:03:04.991Z,26.30
2022-10-08T23:08:07.114Z,26.50
2022-10-08T23:13:09.227Z,26.60
2022-10-08T23:18:11.249Z,26.90
2022-10-08T23:23:13.265Z,26.80
2022-10-08T23:28:15.333Z,27.20
2022-10-08T23:33:18.419Z,26.60
2022-10-08T23:38:20.491Z,26.30
2022-10-08T23:43:22.514Z,27.00
2022-10-08T23:48:24.633Z,26.60
2022-10-08T23:53:26.806Z,26.50
2022-10-08T23:58:29.234Z,26.10
